Time;durP1;ratioP1;P1;durP2;ratioP2;P2;SDS_P1;SDS_P2;PMS_P1;PMS_P2;Temp;Humidity;BMP_temperature;BMP_pressure;BME280_temperature;BME280_humidity;BME280_pressure;Samples;Min_cycle;Max_cycle;Signal;HPM_P1;HPM_P2
2022/03/13 11:16:50;;;;;;;23.83;18.47;;;12.50;22.00;;;;;;6267245;22;1405011;-78
2022/03/13 11:19:17;;;;;;;23.87;18.07;;;12.40;19.90;;;;;;6273003;22;20183;-78
2022/03/13 11:21:43;;;;;;;29.40;18.80;;;12.40;20.60;;;;;;6272534;22;20413;-79
2022/03/13 11:24:09;;;;;;;25.13;21.50;;;12.40;20.70;;;;;;6272503;22;20388;-79
2022/03/13 11:26:36;;;;;;;24.20;18.57;;;12.40;20.90;;;;;;6273862;22;20424;-79
2022/03/13 11:29:01;;;;;;;24.50;16.73;;;12.50;20.40;;;;;;6273461;22;20523;-79
2022/03/13 11:31:35;;;;;;;25.00;18.20;;;12.50;20.40;;;;;;6273813;22;20390;-79
2022/03/13 11:34:12;;;;;;;27.23;17.90;;;12.50;22.00;;;;;;6274049;22;20207;-79
2022/03/13 11:36:40;;;;;;;25.87;17.87;;;12.50;21.70;;;;;;6273407;22;20468;-79
2022/03/13 11:39:09;;;;;;;28.50;19.17;;;12.50;21.00;;;;;;6273717;22;20444;-79
2022/03/13 11:41:42;;;;;;;25.20;22.60;;;12.50;20.10;;;;;;6273663;22;20685;-79
2022/03/13 11:44:22;;;;;;;26.97;18.27;;;12.60;21.20;;;;;;6273729;22;20377;-79
2022/03/13 11:46:53;;;;;;;29.17;18.53;;;12.60;20.60;;;;;;6272761;22;20385;-79
2022/03/13 11:49:32;;;;;;;21.73;17.33;;;12.80;19.70;;;;;;6273782;22;20417;-79
2022/03/13 11:52:13;;;;;;;21.27;17.33;;;12.80;19.70;;;;;;6273997;22;20389;-79
2022/03/13 11:54:54;;;;;;;26.03;20.47;;;13.10;20.00;;;;;;6272977;22;20863;-78
2022/03/13 11:57:22;;;;;;;22.83;16.97;;;13.00;19.70;;;;;;6273444;22;20504;-78
2022/03/13 12:00:10;;;;;;;22.57;18.43;;;13.00;20.60;;;;;;6271693;22;20447;-80
2022/03/13 12:02:41;;;;;;;23.93;18.83;;;13.00;20.30;;;;;;6273048;22;20377;-79
2022/03/13 12:05:30;;;;;;;30.10;23.50;;;13.10;20.30;;;;;;6273475;22;20431;-80
2022/03/13 12:08:08;;;;;;;20.00;16.00;;;13.10;20.40;;;;;;6273685;22;20427;-80
2022/03/13 12:10:42;;;;;;;23.23;18.10;;;13.20;19.80;;;;;;6273570;22;20385;-80
2022/03/13 12:13:12;;;;;;;23.47;19.27;;;13.30;19.40;;;;;;6273569;22;20378;-80
2022/03/13 12:15:40;;;;;;;24.20;17.33;;;13.30;19.90;;;;;;6273792;22;20381;-80
2022/03/13 12:18:25;;;;;;;23.27;18.27;;;13.30;21.00;;;;;;6274024;22;20436;-80
2022/03/13 12:20:52;;;;;;;20.27;16.80;;;13.30;19.00;;;;;;6273476;22;20456;-80
2022/03/13 12:23:26;;;;;;;19.83;17.20;;;13.50;19.80;;;;;;6273998;22;20933;-80
2022/03/13 12:25:54;;;;;;;22.77;20.53;;;13.60;19.00;;;;;;6273784;22;20467;-80
2022/03/13 12:28:32;;;;;;;21.33;17.27;;;13.60;19.30;;;;;;6273994;22;20365;-80
2022/03/13 12:31:01;;;;;;;21.93;17.97;;;13.70;18.50;;;;;;6274100;22;20389;-80
2022/03/13 12:33:29;;;;;;;21.63;17.47;;;13.90;20.40;;;;;;6274071;22;20436;-80
2022/03/13 12:36:02;;;;;;;19.53;17.43;;;13.90;17.60;;;;;;6273318;22;20404;-79
2022/03/13 12:38:56;;;;;;;21.63;18.27;;;13.90;18.10;;;;;;6273902;22;20723;-80
2022/03/13 12:41:25;;;;;;;19.83;17.70;;;13.90;18.40;;;;;;6273262;22;20863;-80
2022/03/13 12:44:30;;;;;;;21.97;17.97;;;13.90;18.10;;;;;;6272468;22;20392;-80
2022/03/13 12:47:01;;;;;;;21.20;17.57;;;14.00;17.60;;;;;;6273481;22;20377;-78
2022/03/13 12:50:05;;;;;;;23.50;17.47;;;14.10;18.60;;;;;;6273865;22;20388;-79
2022/03/13 12:52:42;;;;;;;21.97;17.00;;;14.10;17.70;;;;;;6274630;22;20392;-87
2022/03/13 12:55:18;;;;;;;29.10;19.30;;;14.00;17.60;;;;;;6275267;22;20388;-84
2022/03/13 12:57:51;;;;;;;22.50;17.37;;;14.00;17.60;;;;;;6274948;22;20400;-80
2022/03/13 13:00:21;;;;;;;25.20;20.37;;;14.10;18.10;;;;;;6273755;22;20455;-81
2022/03/13 13:03:02;;;;;;;23.53;18.67;;;14.20;16.30;;;;;;6273199;22;20380;-80
2022/03/13 13:05:29;;;;;;;22.23;17.87;;;14.20;18.30;;;;;;6273202;22;20385;-80
2022/03/13 13:07:55;;;;;;;28.50;19.67;;;14.20;17.80;;;;;;6273468;22;20385;-80
2022/03/13 13:10:21;;;;;;;24.23;19.10;;;14.10;17.50;;;;;;6273635;22;20386;-78
2022/03/13 13:12:48;;;;;;;17.23;15.33;;;14.10;17.30;;;;;;6273819;22;20373;-78
2022/03/13 13:15:15;;;;;;;23.33;18.97;;;14.10;16.50;;;;;;6271846;22;20400;-78
2022/03/13 13:17:42;;;;;;;20.53;16.73;;;14.30;16.00;;;;;;6271437;22;20417;-78
2022/03/13 13:20:26;;;;;;;23.60;19.87;;;14.30;16.80;;;;;;6271863;22;20428;-78
2022/03/13 13:23:13;;;;;;;21.80;17.83;;;14.30;17.20;;;;;;6271715;22;20431;-79
2022/03/13 13:25:39;;;;;;;21.73;17.20;;;14.30;17.10;;;;;;6272345;22;20378;-78
2022/03/13 13:28:11;;;;;;;24.57;19.33;;;14.20;16.80;;;;;;6272314;22;20407;-79
2022/03/13 13:30:39;;;;;;;24.70;18.87;;;14.40;16.70;;;;;;6273873;22;20210;-79
2022/03/13 13:33:13;;;;;;;22.23;18.30;;;14.40;15.90;;;;;;6275807;22;20378;-79
2022/03/13 13:35:49;;;;;;;25.93;17.60;;;14.50;16.50;;;;;;6273553;22;20380;-78
2022/03/13 13:38:20;;;;;;;22.67;17.97;;;14.60;15.70;;;;;;6274794;22;20403;-78
2022/03/13 13:41:05;;;;;;;25.53;17.90;;;14.60;16.60;;;;;;6273981;22;20448;-79
2022/03/13 13:43:43;;;;;;;19.50;15.50;;;14.60;16.80;;;;;;6273904;22;20449;-79
2022/03/13 13:46:13;;;;;;;23.20;17.63;;;14.60;16.80;;;;;;6274608;22;20377;-79
2022/03/13 13:48:39;;;;;;;25.50;18.33;;;14.60;16.30;;;;;;6273977;22;20381;-78
2022/03/13 13:51:20;;;;;;;23.70;19.23;;;14.70;16.60;;;;;;6274356;22;20385;-78
2022/03/13 13:54:11;;;;;;;19.80;16.70;;;14.70;16.10;;;;;;6274653;22;20169;-78
2022/03/13 13:56:40;;;;;;;20.07;16.60;;;14.70;15.90;;;;;;6274168;22;20388;-79
2022/03/13 13:59:19;;;;;;;20.70;16.43;;;14.80;16.90;;;;;;6274690;22;20417;-78
2022/03/13 14:01:47;;;;;;;22.97;17.53;;;14.80;15.90;;;;;;6274120;22;20856;-78
2022/03/13 14:04:14;;;;;;;24.00;17.20;;;15.00;16.20;;;;;;6273932;22;20680;-78
2022/03/13 14:06:41;;;;;;;19.97;16.23;;;15.00;17.40;;;;;;6273069;22;20838;-78
2022/03/13 14:09:07;;;;;;;21.40;16.57;;;14.90;16.30;;;;;;6274731;22;20409;-84
2022/03/13 14:11:34;;;;;;;18.83;15.70;;;15.10;18.30;;;;;;6274174;22;20385;-85
2022/03/13 14:14:02;;;;;;;22.17;16.10;;;15.10;15.00;;;;;;6274132;22;20443;-84
2022/03/13 14:16:28;;;;;;;18.10;15.17;;;15.00;14.90;;;;;;6273833;22;20811;-87
2022/03/13 14:18:54;;;;;;;20.73;15.60;;;15.00;14.60;;;;;;6274037;22;20515;-84
2022/03/13 14:21:20;;;;;;;18.70;15.17;;;14.90;15.10;;;;;;6274442;22;20382;-87
2022/03/13 14:23:59;;;;;;;19.73;16.90;;;14.90;15.00;;;;;;6273481;22;20393;-88
2022/03/13 14:26:25;;;;;;;17.73;14.03;;;15.00;14.70;;;;;;6274447;22;20154;-84
2022/03/13 14:28:51;;;;;;;18.90;16.67;;;15.00;14.40;;;;;;6273894;22;20393;-84
2022/03/13 14:31:18;;;;;;;17.80;15.57;;;15.00;14.80;;;;;;6274586;22;20413;-79
2022/03/13 14:33:44;;;;;;;19.17;16.03;;;15.00;14.10;;;;;;6272890;22;20389;-78
2022/03/13 14:36:14;;;;;;;20.07;15.47;;;15.00;14.20;;;;;;6273445;22;20485;-78
2022/03/13 14:38:47;;;;;;;18.90;16.70;;;15.00;15.00;;;;;;6247050;22;20579;-78
2022/03/13 14:41:13;;;;;;;19.90;17.80;;;14.90;14.70;;;;;;6272591;22;20703;-78
2022/03/13 14:43:38;;;;;;;18.53;16.07;;;14.90;14.90;;;;;;6270645;22;20374;-79
2022/03/13 14:46:07;;;;;;;20.30;15.30;;;14.80;14.70;;;;;;6273425;22;20372;-79
2022/03/13 14:48:33;;;;;;;20.83;15.83;;;14.80;14.80;;;;;;6271691;22;20158;-78
2022/03/13 14:50:58;;;;;;;17.60;15.70;;;14.80;14.90;;;;;;6272909;22;20378;-78
2022/03/13 14:53:24;;;;;;;17.37;15.00;;;14.70;14.90;;;;;;6272700;22;20159;-78
2022/03/13 14:55:50;;;;;;;18.40;15.27;;;14.70;15.10;;;;;;6272860;22;20253;-78
2022/03/13 14:58:16;;;;;;;20.00;16.53;;;14.70;14.60;;;;;;6273574;22;20150;-78
2022/03/13 15:00:42;;;;;;;16.93;15.23;;;14.70;14.40;;;;;;6273310;22;20641;-78
2022/03/13 15:03:07;;;;;;;22.80;14.93;;;14.70;14.30;;;;;;6273826;22;20691;-78
2022/03/13 15:05:33;;;;;;;19.80;17.10;;;14.70;14.30;;;;;;6273598;22;20377;-78
2022/03/13 15:07:59;;;;;;;16.93;13.70;;;14.80;14.30;;;;;;6273580;22;20459;-78
2022/03/13 15:10:25;;;;;;;20.80;16.03;;;14.80;14.50;;;;;;6273786;22;20212;-78
2022/03/13 15:12:55;;;;;;;20.33;15.40;;;14.80;14.20;;;;;;6273131;22;20386;-78
2022/03/13 15:15:22;;;;;;;16.83;14.00;;;14.80;14.60;;;;;;6273314;22;20472;-78
2022/03/13 15:17:49;;;;;;;16.93;15.10;;;14.80;14.50;;;;;;6273264;22;20503;-77
2022/03/13 15:20:15;;;;;;;18.20;15.00;;;15.00;14.10;;;;;;6273119;22;20425;-78
2022/03/13 15:22:41;;;;;;;35.70;23.60;;;14.90;14.10;;;;;;6272905;22;20707;-78
2022/03/13 15:25:08;;;;;;;17.60;14.63;;;14.90;14.50;;;;;;6273271;22;20626;-78
2022/03/13 15:27:33;;;;;;;19.53;14.43;;;14.80;14.60;;;;;;6272761;22;20450;-78
2022/03/13 15:29:59;;;;;;;18.33;13.47;;;14.70;14.70;;;;;;6274623;22;20452;-78
2022/03/13 15:32:27;;;;;;;17.20;14.67;;;14.80;14.30;;;;;;6272683;22;20162;-78
2022/03/13 15:34:52;;;;;;;18.07;14.10;;;14.80;14.40;;;;;;6272785;22;20725;-78
2022/03/13 15:37:18;;;;;;;15.37;13.63;;;14.80;14.30;;;;;;6274932;22;20381;-78
2022/03/13 15:39:44;;;;;;;14.93;13.20;;;14.90;14.00;;;;;;6273079;22;20610;-78
2022/03/13 15:42:10;;;;;;;17.33;14.07;;;14.90;14.10;;;;;;6273468;22;20377;-78
2022/03/13 15:44:36;;;;;;;18.13;14.57;;;14.80;14.50;;;;;;6273875;22;20154;-78
2022/03/13 15:47:03;;;;;;;18.20;14.33;;;14.80;14.50;;;;;;6273230;22;20378;-78
2022/03/13 15:49:29;;;;;;;16.70;13.57;;;14.80;14.40;;;;;;6272419;22;20597;-78
2022/03/13 15:51:55;;;;;;;17.00;14.90;;;14.80;14.10;;;;;;6272267;22;20480;-77
2022/03/13 15:54:22;;;;;;;16.50;13.40;;;14.80;14.30;;;;;;6272650;22;20409;-78
2022/03/13 15:56:48;;;;;;;16.13;13.23;;;14.90;14.20;;;;;;6272527;22;20507;-77
2022/03/13 15:59:15;;;;;;;16.40;13.80;;;14.80;14.10;;;;;;6274586;22;20721;-78
2022/03/13 16:01:41;;;;;;;20.20;16.23;;;14.90;14.10;;;;;;6272242;22;20480;-78
2022/03/13 16:04:06;;;;;;;16.77;14.47;;;14.90;14.00;;;;;;6273058;22;20237;-77
2022/03/13 16:06:34;;;;;;;18.63;15.57;;;15.00;13.90;;;;;;6272356;22;20584;-78
2022/03/13 16:09:00;;;;;;;17.43;14.87;;;15.00;13.90;;;;;;6272689;22;20154;-77
2022/03/13 16:11:25;;;;;;;17.17;14.30;;;15.00;13.70;;;;;;6272261;22;20385;-77
2022/03/13 16:13:53;;;;;;;15.93;14.33;;;14.90;13.60;;;;;;6271727;22;20187;-78
2022/03/13 16:16:21;;;;;;;20.90;13.70;;;14.90;13.50;;;;;;6273045;22;20205;-77
2022/03/13 16:18:50;;;;;;;15.67;12.37;;;14.80;13.70;;;;;;6271750;22;20712;-77
2022/03/13 16:21:16;;;;;;;16.23;14.53;;;14.70;13.70;;;;;;6274076;22;20369;-77
2022/03/13 16:23:41;;;;;;;19.03;13.70;;;14.70;13.90;;;;;;6271188;22;20456;-78
2022/03/13 16:26:07;;;;;;;16.00;14.30;;;14.70;13.80;;;;;;6272460;22;20154;-77
2022/03/13 16:28:33;;;;;;;22.77;15.07;;;14.70;13.30;;;;;;6273498;22;20184;-77
2022/03/13 16:30:59;;;;;;;16.43;14.80;;;14.80;13.40;;;;;;6272425;22;20234;-78
2022/03/13 16:33:24;;;;;;;15.47;13.13;;;14.80;13.30;;;;;;6272143;22;20151;-78
2022/03/13 16:35:50;;;;;;;15.37;13.20;;;14.80;13.50;;;;;;6271944;22;20528;-78
2022/03/13 16:38:18;;;;;;;24.83;15.87;;;14.80;13.60;;;;;;6273114;22;20564;-78
2022/03/13 16:40:44;;;;;;;19.30;13.90;;;14.80;13.90;;;;;;6272144;22;20182;-78
2022/03/13 16:43:10;;;;;;;16.17;14.43;;;14.70;13.70;;;;;;6272660;22;20427;-78
2022/03/13 16:45:40;;;;;;;15.00;13.40;;;14.70;13.50;;;;;;6271890;22;20385;-78
2022/03/13 16:48:06;;;;;;;15.90;13.20;;;14.70;13.60;;;;;;6272179;22;20370;-78
2022/03/13 16:50:32;;;;;;;15.77;13.27;;;14.70;13.10;;;;;;6271646;22;20944;-78
2022/03/13 16:52:58;;;;;;;14.90;13.30;;;14.60;13.20;;;;;;6272295;22;20377;-78
2022/03/13 16:55:24;;;;;;;17.70;12.83;;;14.50;13.20;;;;;;6270818;22;20386;-78
2022/03/13 16:57:52;;;;;;;14.67;13.23;;;14.50;13.40;;;;;;6270549;22;20513;-78
2022/03/13 17:00:18;;;;;;;19.00;13.80;;;14.40;13.70;;;;;;6271198;22;20432;-78
2022/03/13 17:02:44;;;;;;;17.40;13.33;;;14.30;13.80;;;;;;6270470;22;20378;-78
2022/03/13 17:05:11;;;;;;;19.33;15.47;;;14.20;14.00;;;;;;6274358;22;20748;-78
2022/03/13 17:07:36;;;;;;;17.57;14.10;;;14.10;13.90;;;;;;6273773;22;20378;-78
2022/03/13 17:10:09;;;;;;;16.97;12.90;;;14.20;14.00;;;;;;6272821;22;20384;-78
2022/03/13 17:12:34;;;;;;;15.60;14.00;;;14.10;14.00;;;;;;6273652;22;20151;-78
2022/03/13 17:15:00;;;;;;;14.17;12.53;;;14.10;14.30;;;;;;6272523;22;20705;-77
2022/03/13 17:17:26;;;;;;;16.70;14.30;;;14.00;14.60;;;;;;6273568;22;20308;-78
2022/03/13 17:19:52;;;;;;;16.73;14.07;;;14.00;14.60;;;;;;6272043;22;20683;-77
2022/03/13 17:22:18;;;;;;;17.73;15.47;;;14.10;14.80;;;;;;6273605;22;20159;-78
2022/03/13 17:24:44;;;;;;;15.83;13.73;;;14.10;14.20;;;;;;6272649;22;20380;-78
2022/03/13 17:27:10;;;;;;;22.83;14.80;;;14.20;14.10;;;;;;6273201;22;20754;-77
2022/03/13 17:29:37;;;;;;;15.33;13.60;;;14.20;14.20;;;;;;6272805;22;20159;-78
2022/03/13 17:32:03;;;;;;;16.00;14.50;;;14.20;14.30;;;;;;6272657;22;20397;-77
2022/03/13 17:34:29;;;;;;;15.13;13.53;;;14.20;14.50;;;;;;6273015;22;20381;-78
2022/03/13 17:36:55;;;;;;;16.83;13.63;;;14.10;14.60;;;;;;6273309;22;20397;-77
2022/03/13 17:39:22;;;;;;;17.13;13.50;;;14.10;14.50;;;;;;6273282;22;20190;-78
2022/03/13 17:41:52;;;;;;;15.00;13.40;;;14.00;14.60;;;;;;6273203;22;20378;-77
2022/03/13 17:44:19;;;;;;;18.00;14.50;;;14.00;14.90;;;;;;6273537;22;20377;-78
2022/03/13 17:46:45;;;;;;;17.93;14.23;;;13.90;14.60;;;;;;6273175;22;20749;-77
2022/03/13 17:49:11;;;;;;;15.63;14.00;;;13.90;15.00;;;;;;6272159;22;20733;-78
2022/03/13 17:51:38;;;;;;;14.97;12.60;;;13.90;14.90;;;;;;6272509;22;20841;-77
2022/03/13 17:54:05;;;;;;;16.83;13.43;;;13.80;15.00;;;;;;6273233;22;20385;-83
2022/03/13 17:56:31;;;;;;;16.97;14.53;;;13.70;14.90;;;;;;6273727;22;20389;-84
2022/03/13 17:58:57;;;;;;;16.63;13.00;;;13.70;15.20;;;;;;6274503;22;20428;-83
2022/03/13 18:01:24;;;;;;;20.13;14.20;;;13.60;15.40;;;;;;6274462;22;20694;-84
2022/03/13 18:03:50;;;;;;;18.47;16.80;;;13.60;15.80;;;;;;6274445;22;20177;-83
2022/03/13 18:06:16;;;;;;;17.17;14.30;;;13.50;16.80;;;;;;6275098;22;20379;-84
2022/03/13 18:08:42;;;;;;;18.50;14.87;;;13.40;16.20;;;;;;6274646;22;20373;-83
2022/03/13 18:11:08;;;;;;;20.13;14.60;;;13.30;17.10;;;;;;6275263;22;20374;-83
2022/03/13 18:13:34;;;;;;;17.53;14.10;;;13.10;17.00;;;;;;6275039;22;20474;-83
2022/03/13 18:16:00;;;;;;;18.00;15.07;;;13.10;17.50;;;;;;6273912;22;20159;-83
2022/03/13 18:18:26;;;;;;;22.33;14.53;;;13.10;17.30;;;;;;6274663;22;20397;-83
2022/03/13 18:20:52;;;;;;;21.03;15.50;;;12.90;17.80;;;;;;6274671;22;20424;-83
2022/03/13 18:23:17;;;;;;;21.23;14.60;;;12.80;18.60;;;;;;6274091;22;20226;-83
2022/03/13 18:25:43;;;;;;;19.60;17.70;;;12.70;18.20;;;;;;6274632;22;20540;-83
2022/03/13 18:28:09;;;;;;;19.97;14.00;;;12.60;18.60;;;;;;6274850;22;20178;-83
2022/03/13 18:30:36;;;;;;;16.67;13.63;;;12.60;18.90;;;;;;6275085;22;20203;-85
2022/03/13 18:33:02;;;;;;;20.03;18.00;;;12.50;19.10;;;;;;6276254;22;20230;-83
2022/03/13 18:35:28;;;;;;;20.83;14.77;;;12.40;19.60;;;;;;6276760;22;20401;-85
2022/03/13 18:37:57;;;;;;;18.83;14.20;;;12.40;19.50;;;;;;6270346;22;20154;-83
2022/03/13 18:40:22;;;;;;;18.00;14.67;;;12.30;19.60;;;;;;6274467;22;20425;-83
2022/03/13 18:42:48;;;;;;;17.03;14.50;;;12.30;19.80;;;;;;6273456;22;20468;-83
2022/03/13 18:45:20;;;;;;;17.77;14.27;;;12.20;20.00;;;;;;6274055;22;20151;-83
2022/03/13 18:47:46;;;;;;;17.73;14.07;;;12.10;20.10;;;;;;6272427;22;20377;-82
2022/03/13 18:50:12;;;;;;;16.93;13.30;;;12.00;20.40;;;;;;6274605;22;20384;-83
2022/03/13 18:52:40;;;;;;;17.60;13.80;;;12.00;20.00;;;;;;6273204;22;20159;-83
2022/03/13 18:55:06;;;;;;;16.23;13.60;;;12.00;19.90;;;;;;6275191;22;20522;-83
2022/03/13 18:57:32;;;;;;;17.60;15.37;;;12.00;19.70;;;;;;6275225;22;20369;-83
2022/03/13 18:59:57;;;;;;;17.33;13.37;;;11.90;19.50;;;;;;6274566;22;20776;-83
2022/03/13 19:02:23;;;;;;;16.13;13.80;;;11.80;19.70;;;;;;6272570;22;20155;-83
2022/03/13 19:04:49;;;;;;;13.30;11.90;;;11.80;20.10;;;;;;6272832;22;20151;-83
2022/03/13 19:07:14;;;;;;;16.63;13.33;;;11.80;19.90;;;;;;6272804;22;20184;-82
2022/03/13 19:09:40;;;;;;;18.43;13.77;;;11.80;20.00;;;;;;6271683;22;20166;-82
2022/03/13 19:12:08;;;;;;;14.67;13.07;;;11.70;20.10;;;;;;6272947;22;20154;-82
2022/03/13 19:14:47;;;;;;;18.10;14.27;;;11.70;19.80;;;;;;6272033;22;20154;-82
2022/03/13 19:17:13;;;;;;;18.43;13.47;;;11.70;19.80;;;;;;6272849;22;20405;-82
2022/03/13 19:19:43;;;;;;;16.90;14.80;;;11.70;19.90;;;;;;6273868;22;20807;-82
2022/03/13 19:22:12;;;;;;;22.27;14.37;;;11.70;19.70;;;;;;6273330;22;20911;-82
2022/03/13 19:24:38;;;;;;;15.70;12.77;;;11.70;19.40;;;;;;6272410;22;20381;-82
2022/03/13 19:27:04;;;;;;;22.80;19.07;;;11.70;19.30;;;;;;6272636;22;20460;-83
2022/03/13 19:29:29;;;;;;;18.50;16.53;;;11.70;18.70;;;;;;6272795;22;20381;-82
2022/03/13 19:31:56;;;;;;;17.33;15.63;;;11.70;19.20;;;;;;6272626;22;20790;-82
2022/03/13 19:34:22;;;;;;;20.50;12.37;;;11.70;19.00;;;;;;6272647;22;20154;-82
2022/03/13 19:36:47;;;;;;;14.17;11.13;;;11.70;18.70;;;;;;6272140;22;20435;-82
2022/03/13 19:39:13;;;;;;;19.03;12.53;;;11.70;19.00;;;;;;6272588;22;20210;-82
2022/03/13 19:41:38;;;;;;;13.93;11.17;;;11.60;18.40;;;;;;6274121;22;20142;-82
2022/03/13 19:44:04;;;;;;;12.23;10.10;;;11.60;18.20;;;;;;6272780;22;20580;-83
2022/03/13 19:46:32;;;;;;;11.67;9.73;;;11.60;18.20;;;;;;6272710;22;20185;-82
2022/03/13 19:48:58;;;;;;;14.03;9.93;;;11.60;18.00;;;;;;6273299;22;20378;-82
2022/03/13 19:51:24;;;;;;;11.57;10.37;;;11.60;18.00;;;;;;6272745;22;20473;-82
2022/03/13 19:53:53;;;;;;;11.93;10.63;;;11.50;17.80;;;;;;6271840;22;20181;-82
2022/03/13 19:56:20;;;;;;;12.83;10.03;;;11.60;17.60;;;;;;6272480;22;20177;-82
2022/03/13 19:58:46;;;;;;;10.80;9.70;;;11.60;17.70;;;;;;6271987;22;20381;-82
2022/03/13 20:01:11;;;;;;;10.40;9.33;;;11.60;17.40;;;;;;6272325;22;20385;-83
2022/03/13 20:03:41;;;;;;;11.40;9.47;;;11.50;17.40;;;;;;6272140;22;20154;-82
2022/03/13 20:06:09;;;;;;;14.17;10.27;;;11.50;18.10;;;;;;6272685;22;20748;-82
2022/03/13 20:08:35;;;;;;;12.43;11.17;;;11.40;18.30;;;;;;6271852;22;20381;-82
2022/03/13 20:11:05;;;;;;;14.33;10.70;;;11.40;18.30;;;;;;6272365;22;20853;-82
2022/03/13 20:13:32;;;;;;;13.67;10.20;;;11.30;17.90;;;;;;6271917;22;20876;-82
2022/03/13 20:15:58;;;;;;;11.10;10.00;;;11.30;18.40;;;;;;6272253;22;20384;-82
2022/03/13 20:18:23;;;;;;;11.43;9.80;;;11.30;18.10;;;;;;6272319;22;20401;-83
2022/03/13 20:20:49;;;;;;;11.67;10.20;;;11.30;18.40;;;;;;6271325;22;20208;-83
2022/03/13 20:23:15;;;;;;;11.80;10.60;;;11.20;19.50;;;;;;6271986;22;20150;-83
2022/03/13 20:25:41;;;;;;;13.10;10.67;;;11.20;18.90;;;;;;6271558;22;20158;-82
2022/03/13 20:28:11;;;;;;;12.27;9.43;;;11.20;19.00;;;;;;6272588;22;20853;-82
2022/03/13 20:30:53;;;;;;;11.73;10.13;;;11.10;19.00;;;;;;6272900;22;20470;-82
2022/03/13 20:33:19;;;;;;;10.90;9.90;;;11.00;19.80;;;;;;6272270;22;20855;-82
2022/03/13 20:35:45;;;;;;;10.50;9.17;;;11.20;19.00;;;;;;6273541;22;20154;-82
2022/03/13 20:38:10;;;;;;;15.40;11.67;;;11.10;19.40;;;;;;6273370;22;20377;-82
2022/03/13 20:40:37;;;;;;;13.00;11.03;;;11.10;18.70;;;;;;6273493;22;20224;-83
2022/03/13 20:43:05;;;;;;;13.87;11.20;;;11.10;19.00;;;;;;6273937;22;20189;-83
2022/03/13 20:45:31;;;;;;;13.20;11.73;;;11.10;19.60;;;;;;6273978;22;20446;-83
2022/03/13 20:47:57;;;;;;;15.20;13.70;;;11.00;19.30;;;;;;6273677;22;20386;-82
2022/03/13 20:50:23;;;;;;;14.83;12.87;;;11.00;19.50;;;;;;6273510;22;20716;-83
2022/03/13 20:52:50;;;;;;;14.00;10.90;;;11.00;19.70;;;;;;6273333;22;20381;-82
2022/03/13 20:55:16;;;;;;;13.63;10.10;;;11.00;20.50;;;;;;6272417;22;20177;-77
2022/03/13 20:57:42;;;;;;;20.73;14.20;;;10.90;19.70;;;;;;6271788;22;20392;-77
2022/03/13 21:00:12;;;;;;;12.50;11.30;;;10.90;20.70;;;;;;6272317;22;20425;-77
2022/03/13 21:02:39;;;;;;;11.83;10.20;;;10.90;20.00;;;;;;6272451;22;20453;-78
2022/03/13 21:05:05;;;;;;;11.57;10.37;;;10.90;19.80;;;;;;6272175;22;20527;-78
2022/03/13 21:07:31;;;;;;;15.27;10.40;;;10.90;19.80;;;;;;6274021;22;20818;-77
2022/03/13 21:09:58;;;;;;;15.40;11.83;;;10.80;19.80;;;;;;6271596;22;20392;-78
2022/03/13 21:12:24;;;;;;;13.73;12.30;;;10.80;19.70;;;;;;6273870;22;20385;-77
2022/03/13 21:14:51;;;;;;;12.80;10.73;;;10.90;20.30;;;;;;6271235;22;20392;-77
2022/03/13 21:17:16;;;;;;;23.50;16.60;;;10.80;20.40;;;;;;6272470;22;20619;-77
2022/03/13 21:19:43;;;;;;;15.37;12.43;;;10.80;20.00;;;;;;6271628;22;20428;-77
2022/03/13 21:22:09;;;;;;;13.90;12.50;;;10.80;20.70;;;;;;6271891;22;20238;-77
2022/03/13 21:24:35;;;;;;;12.70;10.77;;;10.80;20.80;;;;;;6271939;22;20381;-78
2022/03/13 21:27:01;;;;;;;15.03;12.67;;;10.80;20.30;;;;;;6272075;22;20381;-78
2022/03/13 21:29:28;;;;;;;12.97;11.73;;;10.80;20.70;;;;;;6271811;22;20155;-78
2022/03/13 21:31:54;;;;;;;16.40;14.97;;;10.80;21.00;;;;;;6271918;22;20392;-80
2022/03/13 21:34:25;;;;;;;12.83;11.53;;;10.80;20.40;;;;;;6272723;22;20381;-78
2022/03/13 21:36:52;;;;;;;14.90;12.37;;;10.70;21.10;;;;;;6272039;22;20461;-78
2022/03/13 21:39:19;;;;;;;15.43;11.97;;;10.60;21.20;;;;;;6272340;22;20425;-78
2022/03/13 21:41:47;;;;;;;16.40;12.03;;;10.60;21.30;;;;;;6271702;22;20373;-77
2022/03/13 21:44:13;;;;;;;18.17;16.37;;;10.60;21.20;;;;;;6271771;22;20381;-77
2022/03/13 21:46:39;;;;;;;16.10;12.90;;;10.60;21.50;;;;;;6271282;22;20753;-78
2022/03/13 21:49:05;;;;;;;13.30;10.77;;;10.60;21.40;;;;;;6272349;22;20439;-78
2022/03/13 21:51:34;;;;;;;13.97;11.67;;;10.60;21.10;;;;;;6273409;22;20385;-78
2022/03/13 21:54:01;;;;;;;13.93;11.17;;;10.50;21.70;;;;;;6273635;22;20390;-77
2022/03/13 21:56:27;;;;;;;13.90;10.93;;;10.50;21.40;;;;;;6273979;22;20392;-77
2022/03/13 21:58:52;;;;;;;12.70;11.40;;;10.50;21.60;;;;;;6272136;22;21133;-78
2022/03/13 22:01:18;;;;;;;16.40;11.70;;;10.50;21.70;;;;;;6273460;22;20169;-79
2022/03/13 22:03:44;;;;;;;13.13;11.83;;;10.50;21.60;;;;;;6272386;22;20158;-78
2022/03/13 22:06:10;;;;;;;13.00;9.67;;;10.50;21.50;;;;;;6274127;22;20412;-78
2022/03/13 22:08:36;;;;;;;14.30;11.90;;;10.50;21.40;;;;;;6274709;22;20707;-78
2022/03/13 22:11:02;;;;;;;12.33;10.80;;;10.50;21.30;;;;;;6274533;22;20395;-79
2022/03/13 22:13:29;;;;;;;17.37;15.63;;;10.40;21.30;;;;;;6274023;22;20170;-78
2022/03/13 22:15:55;;;;;;;15.33;10.67;;;10.40;21.20;;;;;;6274167;22;20438;-79
2022/03/13 22:18:21;;;;;;;16.10;12.13;;;10.40;21.20;;;;;;6274318;22;20504;-79
2022/03/13 22:21:19;;;;;;;12.00;10.77;;;10.30;21.30;;;;;;6273624;22;20183;-79
2022/03/13 22:24:06;;;;;;;15.50;14.03;;;10.40;21.50;;;;;;6273317;22;20381;-78
2022/03/13 22:26:32;;;;;;;11.10;10.00;;;10.40;21.10;;;;;;6274894;22;20723;-78
2022/03/13 22:28:58;;;;;;;11.60;9.83;;;10.30;21.00;;;;;;6274378;22;20373;-79
2022/03/13 22:31:23;;;;;;;13.77;11.27;;;10.30;21.50;;;;;;6274733;22;20159;-79
2022/03/13 22:33:49;;;;;;;15.03;10.47;;;10.20;21.50;;;;;;6274654;22;20740;-79
2022/03/13 22:36:15;;;;;;;15.83;14.00;;;10.20;22.80;;;;;;6274263;22;20377;-78
2022/03/13 22:38:41;;;;;;;16.17;14.47;;;10.20;22.10;;;;;;6274203;22;20162;-78
2022/03/13 22:41:07;;;;;;;11.23;10.13;;;10.20;22.70;;;;;;6274628;22;20263;-78
2022/03/13 22:43:34;;;;;;;13.83;11.33;;;10.10;22.90;;;;;;6273579;22;20734;-78
2022/03/13 22:45:59;;;;;;;10.53;9.53;;;10.10;22.50;;;;;;6273917;22;20389;-78
2022/03/13 22:48:25;;;;;;;15.40;13.90;;;10.10;22.60;;;;;;6274139;22;20469;-78
2022/03/13 22:51:01;;;;;;;11.27;10.27;;;10.00;22.60;;;;;;6273485;22;20165;-78
2022/03/13 22:53:28;;;;;;;13.00;11.70;;;9.90;23.00;;;;;;6274272;22;20404;-80
2022/03/13 22:55:55;;;;;;;11.77;10.40;;;9.90;22.50;;;;;;6273776;22;20404;-79
2022/03/13 22:58:30;;;;;;;14.33;11.57;;;9.90;22.50;;;;;;6273553;22;20389;-78
2022/03/13 23:00:58;;;;;;;12.27;10.93;;;9.90;22.70;;;;;;6273341;22;20432;-78
2022/03/13 23:03:24;;;;;;;11.93;10.73;;;9.80;23.10;;;;;;6274170;22;20377;-84
2022/03/13 23:05:52;;;;;;;12.63;10.77;;;9.80;23.20;;;;;;6274398;22;20405;-84
2022/03/13 23:08:18;;;;;;;14.30;10.77;;;9.90;23.40;;;;;;6276330;22;20358;-84
2022/03/13 23:10:44;;;;;;;15.83;10.53;;;9.80;23.80;;;;;;6274157;22;20839;-79
2022/03/13 23:13:15;;;;;;;12.43;10.33;;;9.70;23.80;;;;;;6272058;22;20155;-79
2022/03/13 23:15:45;;;;;;;14.03;11.17;;;9.70;23.70;;;;;;6272981;22;20384;-79
2022/03/13 23:18:19;;;;;;;15.20;11.03;;;9.70;23.90;;;;;;6272967;22;20413;-79
2022/03/13 23:20:45;;;;;;;11.67;10.40;;;9.80;24.20;;;;;;6272865;22;20482;-79
2022/03/13 23:23:13;;;;;;;13.13;10.83;;;9.80;24.10;;;;;;6273153;22;20440;-79
2022/03/13 23:25:42;;;;;;;11.10;9.03;;;9.70;23.80;;;;;;6272486;22;20389;-78
2022/03/13 23:28:08;;;;;;;13.20;10.57;;;9.80;23.80;;;;;;6272936;22;20406;-79
2022/03/13 23:30:35;;;;;;;12.30;11.07;;;9.80;23.80;;;;;;6273361;22;20393;-79
2022/03/13 23:33:07;;;;;;;14.93;11.80;;;9.80;23.60;;;;;;6273376;22;20830;-79
2022/03/13 23:35:35;;;;;;;13.40;12.00;;;9.80;23.80;;;;;;6272846;22;20389;-79
2022/03/13 23:38:01;;;;;;;11.90;10.67;;;9.80;23.80;;;;;;6273444;22;20438;-79
2022/03/13 23:40:28;;;;;;;12.00;10.37;;;9.80;23.80;;;;;;6273118;22;20956;-79
2022/03/13 23:42:55;;;;;;;15.10;11.07;;;9.90;23.30;;;;;;6272400;22;20389;-79
2022/03/13 23:45:22;;;;;;;12.83;10.43;;;9.80;23.20;;;;;;6273406;22;20390;-79
2022/03/13 23:47:48;;;;;;;17.17;15.57;;;9.80;23.80;;;;;;6272312;22;20382;-79
2022/03/13 23:50:14;;;;;;;14.97;12.43;;;9.80;23.80;;;;;;6273230;22;20381;-79